createdAt,value
2022-09-01T00:02:46.788Z,100383.13
2022-09-01T00:05:55.073Z,100382.75
2022-09-01T00:09:01.933Z,100387.09
2022-09-01T00:12:07.128Z,100395.53
2022-09-01T00:15:11.479Z,100398.66
2022-09-01T00:18:15.658Z,100405.03
2022-09-01T00:21:20.897Z,100406.13
2022-09-01T00:24:26.064Z,100415.12
2022-09-01T00:27:31.015Z,100417.03
2022-09-01T00:30:33.892Z,100419.31
2022-09-01T00:33:38.557Z,100423.53
2022-09-01T00:36:41.537Z,100427.56
2022-09-01T00:39:44.027Z,100427.06
2022-09-01T00:42:48.857Z,100430.37
2022-09-01T00:45:52.376Z,100429.66
2022-09-01T00:49:00.999Z,100439.53
2022-09-01T00:52:11.476Z,100435.97
2022-09-01T00:55:34.603Z,100440.31
2022-09-01T00:58:38.287Z,100441.03
2022-09-01T01:01:41.026Z,100444.25
2022-09-01T01:04:44.037Z,100450.13
2022-09-01T01:07:47.967Z,100446.50
2022-09-01T01:10:50.512Z,100441.44
2022-09-01T01:13:57.192Z,100443.34
2022-09-01T01:17:00.995Z,100442.88
2022-09-01T01:20:25.996Z,100444.47
2022-09-01T01:23:43.541Z,100454.63
2022-09-01T01:26:47.453Z,100456.47
2022-09-01T01:29:52.147Z,100446.94
2022-09-01T01:32:57.854Z,100440.81
2022-09-01T01:36:01.907Z,100440.47
2022-09-01T01:39:07.518Z,100445.78
2022-09-01T01:42:12.255Z,100444.69
2022-09-01T01:45:17.755Z,100448.59
2022-09-01T01:48:23.879Z,100442.78
2022-09-01T01:51:26.769Z,100437.16
2022-09-01T01:54:31.320Z,100437.84
2022-09-01T01:57:35.462Z,100446.28
2022-09-01T02:00:38.579Z,100439.19
2022-09-01T02:03:41.245Z,100435.25
2022-09-01T02:06:47.901Z,100429.00
2022-09-01T02:09:50.880Z,100424.75
2022-09-01T02:12:53.374Z,100413.72
2022-09-01T02:15:58.197Z,100409.50
2022-09-01T02:19:02.313Z,100406.91
2022-09-01T02:22:05.089Z,100404.41
2022-09-01T02:25:08.082Z,100393.13
2022-09-01T02:28:15.806Z,100402.00
2022-09-01T02:31:20.012Z,100411.38
2022-09-01T02:34:24.818Z,100406.00
2022-09-01T02:37:27.608Z,100404.31
2022-09-01T02:40:31.649Z,100400.47
2022-09-01T02:43:34.173Z,100390.69
2022-09-01T02:46:38.211Z,100386.56
2022-09-01T02:49:40.699Z,100386.41
2022-09-01T02:52:46.195Z,100389.03
2022-09-01T02:55:48.703Z,100396.37
2022-09-01T02:58:51.890Z,100391.91
2022-09-01T03:01:55.171Z,100388.63
2022-09-01T03:04:58.045Z,100379.97
2022-09-01T03:08:03.555Z,100371.63
2022-09-01T03:11:12.975Z,100381.78
2022-09-01T03:14:17.000Z,100371.75
2022-09-01T03:17:19.709Z,100376.28
2022-09-01T03:20:22.253Z,100360.94
2022-09-01T03:23:25.430Z,100365.38
2022-09-01T03:26:27.897Z,100361.28
2022-09-01T03:29:30.970Z,100363.50
2022-09-01T03:32:33.543Z,100370.59
2022-09-01T03:35:36.693Z,100386.13
2022-09-01T03:38:39.103Z,100391.22
2022-09-01T03:41:42.835Z,100404.34
2022-09-01T03:44:45.475Z,100396.50
2022-09-01T03:47:51.103Z,100401.69
2022-09-01T03:50:53.587Z,100401.78
2022-09-01T03:53:59.138Z,100398.19
2022-09-01T03:57:05.959Z,100395.56
2022-09-01T04:00:13.625Z,100379.69
2022-09-01T04:03:28.986Z,100372.16
2022-09-01T04:06:34.237Z,100373.28
2022-09-01T04:09:37.176Z,100373.22
2022-09-01T04:12:39.968Z,100375.06
2022-09-01T04:15:42.773Z,100375.50
2022-09-01T04:18:48.967Z,100381.38
2022-09-01T04:21:55.221Z,100376.28
2022-09-01T04:24:59.216Z,100387.41
2022-09-01T04:28:03.711Z,100386.69
2022-09-01T04:31:14.884Z,100384.75
2022-09-01T04:34:17.388Z,100390.38
2022-09-01T04:37:21.970Z,100377.69
2022-09-01T04:40:27.521Z,100373.94
2022-09-01T04:43:30.363Z,100382.47
2022-09-01T04:46:39.093Z,100379.84
2022-09-01T04:49:43.470Z,100385.66
2022-09-01T04:52:47.719Z,100385.75
2022-09-01T04:55:54.725Z,100386.72
2022-09-01T04:58:57.349Z,100383.22
2022-09-01T05:02:00.815Z,100378.81
2022-09-01T05:05:03.510Z,100385.75
2022-09-01T05:08:08.008Z,100382.38
2022-09-01T05:11:11.419Z,100385.87
2022-09-01T05:14:19.079Z,100387.03
2022-09-01T05:17:21.773Z,100396.97
2022-09-01T05:20:25.109Z,100397.16
2022-09-01T05:23:28.889Z,100403.19
2022-09-01T05:26:34.661Z,100402.34
2022-09-01T05:29:38.515Z,100409.97
2022-09-01T05:32:41.452Z,100402.69
2022-09-01T05:35:56.750Z,100396.44
2022-09-01T05:39:00.749Z,100395.28
2022-09-01T05:42:04.691Z,100393.81
2022-09-01T05:45:10.838Z,100390.50
2022-09-01T05:48:16.014Z,100399.72
2022-09-01T05:51:43.389Z,100405.31
2022-09-01T05:54:48.042Z,100403.44
2022-09-01T05:57:53.990Z,100399.63
2022-09-01T06:00:58.450Z,100403.72
2022-09-01T06:04:04.711Z,100406.59
2022-09-01T06:07:11.856Z,100416.06
2022-09-01T06:10:17.583Z,100406.34
2022-09-01T06:13:21.892Z,100415.56
2022-09-01T06:16:29.781Z,100420.84
2022-09-01T06:19:37.129Z,100407.53
2022-09-01T06:22:41.131Z,100405.66
2022-09-01T06:25:46.832Z,100403.53
2022-09-01T06:28:55.043Z,100418.97
2022-09-01T06:31:58.889Z,100406.69
2022-09-01T06:35:03.394Z,100402.59
2022-09-01T06:38:10.204Z,100411.56
2022-09-01T06:41:13.219Z,100421.69
2022-09-01T06:44:22.271Z,100425.94
2022-09-01T06:47:28.650Z,100422.97
2022-09-01T06:53:57.021Z,100424.88
2022-09-01T06:58:03.519Z,100427.94
2022-09-01T07:00:28.765Z,100427.50
2022-09-01T07:03:33.083Z,100421.59
2022-09-01T07:10:17.745Z,100435.84
2022-09-01T07:13:23.964Z,100439.69
2022-09-01T07:16:33.319Z,100447.19
2022-09-01T07:19:53.055Z,100442.72
2022-09-01T07:23:06.422Z,100443.75
2022-09-01T07:26:10.156Z,100451.59
2022-09-01T07:29:14.135Z,100460.06
2022-09-01T07:36:25.755Z,100457.22
2022-09-01T07:45:59.734Z,100453.72
2022-09-01T07:49:29.658Z,100461.25
2022-09-01T07:52:26.771Z,100462.72
2022-09-01T07:55:31.937Z,100458.16
2022-09-01T07:58:38.317Z,100460.25
2022-09-01T08:01:42.841Z,100461.50
2022-09-01T08:04:46.430Z,100458.13
2022-09-01T08:07:52.581Z,100462.12
2022-09-01T08:11:04.329Z,100452.03
2022-09-01T08:14:07.823Z,100453.72
2022-09-01T08:17:34.375Z,100454.22
2022-09-01T08:20:37.731Z,100458.34
2022-09-01T08:23:44.253Z,100459.81
2022-09-01T08:26:48.828Z,100457.00
2022-09-01T08:29:51.862Z,100468.47
2022-09-01T08:32:54.911Z,100468.13
2022-09-01T08:35:57.771Z,100466.25
2022-09-01T08:39:01.272Z,100471.34
2022-09-01T08:42:10.119Z,100465.59
2022-09-01T08:45:33.192Z,100470.50
2022-09-01T08:52:17.437Z,100469.09
2022-09-01T08:55:27.394Z,100476.88
2022-09-01T08:58:32.582Z,100475.16
2022-09-01T09:02:01.848Z,100473.47
2022-09-01T09:05:27.970Z,100478.03
2022-09-01T09:08:57.990Z,100472.00
2022-09-01T09:12:22.589Z,100470.06
2022-09-01T09:15:33.912Z,100473.19
2022-09-01T09:18:54.925Z,100470.75
2022-09-01T09:22:01.218Z,100467.63
2022-09-01T09:25:08.297Z,100467.97
2022-09-01T09:28:11.182Z,100470.44
2022-09-01T09:31:51.490Z,100469.00
2022-09-01T09:34:54.903Z,100466.09
2022-09-01T09:38:21.556Z,100451.66
2022-09-01T09:41:27.292Z,100449.94
2022-09-01T09:44:32.818Z,100445.75
2022-09-01T09:47:45.340Z,100437.78
2022-09-01T09:50:48.067Z,100450.50
2022-09-01T09:53:54.277Z,100444.13
2022-09-01T09:57:08.994Z,100445.31
2022-09-01T10:00:32.635Z,100445.19
2022-09-01T10:03:42.456Z,100441.28
2022-09-01T10:06:46.851Z,100442.12
2022-09-01T10:09:51.208Z,100430.97
2022-09-01T10:12:55.398Z,100426.28
2022-09-01T10:16:05.610Z,100428.00
2022-09-01T10:19:13.797Z,100430.25
2022-09-01T10:22:20.353Z,100436.31
2022-09-01T10:25:29.222Z,100432.12
2022-09-01T10:28:33.880Z,100422.59
2022-09-01T10:31:37.257Z,100428.28
2022-09-01T10:34:42.107Z,100425.94
2022-09-01T10:37:46.015Z,100417.13
2022-09-01T10:41:07.185Z,100415.50
2022-09-01T10:44:19.342Z,100415.78
2022-09-01T10:47:33.905Z,100419.09
2022-09-01T10:50:36.775Z,100421.78
2022-09-01T10:53:42.405Z,100417.44
2022-09-01T10:56:52.358Z,100418.53
2022-09-01T10:59:58.100Z,100411.81
2022-09-01T11:10:52.927Z,100413.84
2022-09-01T11:13:58.944Z,100411.66
2022-09-01T11:17:29.367Z,100406.81
2022-09-01T11:20:36.483Z,100407.56
2022-09-01T11:23:39.387Z,100394.44
2022-09-01T11:26:47.457Z,100404.94
2022-09-01T11:30:07.615Z,100401.81
2022-09-01T11:33:16.275Z,100401.94
2022-09-01T11:36:19.725Z,100410.59
2022-09-01T11:39:31.266Z,100404.09
2022-09-01T11:42:45.768Z,100403.88
2022-09-01T11:46:06.977Z,100400.03
2022-09-01T11:49:24.352Z,100400.41
2022-09-01T11:52:30.582Z,100397.94
2022-09-01T11:55:36.177Z,100396.06
2022-09-01T11:58:39.353Z,100394.22
2022-09-01T12:01:41.750Z,100393.22
2022-09-01T12:04:44.360Z,100392.59
2022-09-01T12:07:47.490Z,100387.19
2022-09-01T12:10:50.185Z,100384.88
2022-09-01T12:14:10.877Z,100387.84
2022-09-01T12:17:20.901Z,100377.84
2022-09-01T12:20:31.141Z,100364.12
2022-09-01T12:23:40.325Z,100377.47
2022-09-01T12:26:44.106Z,100374.22
2022-09-01T12:29:50.123Z,100378.94
2022-09-01T12:33:22.845Z,100374.97
2022-09-01T12:36:24.088Z,100370.84
2022-09-01T12:39:33.919Z,100375.66
2022-09-01T12:42:41.471Z,100372.72
2022-09-01T12:45:47.815Z,100375.81
2022-09-01T12:48:50.706Z,100381.62
2022-09-01T12:52:26.577Z,100369.19
2022-09-01T12:59:36.055Z,100370.19
2022-09-01T13:03:18.129Z,100354.59
2022-09-01T13:06:20.470Z,100361.12
2022-09-01T13:09:23.227Z,100355.84
2022-09-01T13:12:25.652Z,100359.63
2022-09-01T13:15:28.678Z,100353.78
2022-09-01T13:18:31.251Z,100364.97
2022-09-01T13:21:36.474Z,100358.84
2022-09-01T13:24:40.518Z,100361.66
2022-09-01T13:27:44.779Z,100349.28
2022-09-01T13:31:28.729Z,100351.09
2022-09-01T13:34:23.474Z,100357.25
2022-09-01T13:37:26.697Z,100358.31
2022-09-01T13:40:29.537Z,100356.00
2022-09-01T13:43:32.291Z,100357.84
2022-09-01T13:46:35.571Z,100356.69
2022-09-01T13:49:42.626Z,100367.06
2022-09-01T13:52:55.128Z,100356.22
2022-09-01T13:59:00.954Z,100361.78
2022-09-01T14:02:04.572Z,100359.69
2022-09-01T14:05:07.958Z,100357.47
2022-09-01T14:08:11.148Z,100361.41
2022-09-01T14:11:19.855Z,100361.12
2022-09-01T14:14:22.877Z,100360.28
2022-09-01T14:17:26.354Z,100364.69
2022-09-01T14:20:36.679Z,100368.22
2022-09-01T14:23:39.994Z,100373.06
2022-09-01T14:26:42.414Z,100366.13
2022-09-01T14:29:54.913Z,100362.50
2022-09-01T14:32:59.517Z,100358.09
2022-09-01T14:36:03.279Z,100365.31
2022-09-01T14:39:05.792Z,100361.19
2022-09-01T14:42:11.869Z,100365.34
2022-09-01T14:45:18.466Z,100361.12
2022-09-01T14:48:21.401Z,100360.47
2022-09-01T14:52:10.464Z,100374.06
2022-09-01T14:54:50.565Z,100365.28
2022-09-01T14:57:54.574Z,100368.09
2022-09-01T15:01:03.586Z,100361.25
2022-09-01T15:04:10.306Z,100370.88
2022-09-01T15:07:13.460Z,100373.06
2022-09-01T15:10:24.911Z,100371.28
2022-09-01T15:13:28.258Z,100368.44
2022-09-01T15:16:30.671Z,100374.28
2022-09-01T15:19:33.442Z,100360.91
2022-09-01T15:22:35.926Z,100372.75
2022-09-01T15:25:38.970Z,100369.63
2022-09-01T15:28:41.565Z,100367.25
2022-09-01T15:31:44.986Z,100365.94
2022-09-01T15:34:47.358Z,100361.75
2022-09-01T15:37:52.292Z,100363.44
